Time;durP1;ratioP1;P1;durP2;ratioP2;P2;SDS_P1;SDS_P2;PMS_P1;PMS_P2;Temp;Humidity;BMP_temperature;BMP_pressure;BME280_temperature;BME280_humidity;BME280_pressure;Samples;Min_cycle;Max_cycle;Signal;HPM_P1;HPM_P2
2021/04/11 00:00:55;;;;;;;2.80;1.20;;;12.50;40.20;;;;;;4983914;28;20071;-77
2021/04/11 00:03:22;;;;;;;2.80;1.38;;;12.40;40.70;;;;;;4983153;28;20109;-78
2021/04/11 00:05:49;;;;;;;2.88;1.17;;;12.20;40.40;;;;;;5001119;28;20058;-77
2021/04/11 00:08:15;;;;;;;2.53;1.10;;;12.20;41.00;;;;;;5006054;28;20042;-77
2021/04/11 00:10:44;;;;;;;4.20;1.27;;;12.10;42.50;;;;;;5008827;28;20057;-78
2021/04/11 00:13:22;;;;;;;4.10;1.13;;;12.00;41.80;;;;;;5003825;28;20090;-77
2021/04/11 00:15:48;;;;;;;1.60;1.00;;;11.90;42.90;;;;;;5004916;28;20034;-77
2021/04/11 00:18:13;;;;;;;4.38;1.20;;;11.80;43.50;;;;;;5007980;28;20038;-78
2021/04/11 00:20:39;;;;;;;2.95;0.95;;;11.70;43.80;;;;;;5004353;28;20046;-77
2021/04/11 00:23:05;;;;;;;5.78;1.05;;;11.60;45.50;;;;;;5028709;28;20019;-76
2021/04/11 00:25:33;;;;;;;3.35;1.20;;;11.50;45.40;;;;;;5005260;28;20034;-76
2021/04/11 00:27:59;;;;;;;3.00;1.20;;;11.40;45.30;;;;;;5002656;28;21102;-76
2021/04/11 00:30:26;;;;;;;1.90;0.90;;;11.40;45.70;;;;;;4987698;28;20121;-78
2021/04/11 00:33:00;;;;;;;1.90;0.90;;;11.30;46.40;;;;;;4982404;28;20058;-78
2021/04/11 00:35:26;;;;;;;1.77;1.00;;;11.30;46.90;;;;;;5008279;28;20052;-77
2021/04/11 00:37:52;;;;;;;4.20;1.08;;;11.20;47.00;;;;;;4989558;28;20041;-78
2021/04/11 00:40:23;;;;;;;6.97;1.13;;;11.10;46.60;;;;;;4996110;28;20035;-78
2021/04/11 00:42:57;;;;;;;2.65;1.00;;;11.10;48.20;;;;;;4993609;28;20873;-78
2021/04/11 00:45:26;;;;;;;;;;;11.00;47.90;;;;;;4991449;28;20068;-77
2021/04/11 00:47:53;;;;;;;4.47;1.00;;;11.00;48.30;;;;;;4996278;28;19913;-77
2021/04/11 00:50:19;;;;;;;3.35;1.25;;;10.90;48.90;;;;;;4984841;28;20073;-76
2021/04/11 00:52:45;;;;;;;2.97;1.25;;;10.80;49.10;;;;;;4984526;28;20042;-77
2021/04/11 00:55:12;;;;;;;1.48;0.98;;;10.80;49.30;;;;;;4981123;28;20105;-77
2021/04/11 00:57:40;;;;;;;4.03;1.23;;;10.70;50.20;;;;;;4989680;28;20042;-76
2021/04/11 01:00:07;;;;;;;2.47;1.17;;;10.70;50.20;;;;;;4989307;28;20514;-77
2021/04/11 01:02:33;;;;;;;3.08;1.20;;;10.70;51.30;;;;;;4983463;28;20778;-76
2021/04/11 01:04:58;;;;;;;3.10;1.20;;;10.60;52.30;;;;;;4997031;28;20096;-79
2021/04/11 01:07:25;;;;;;;2.28;1.13;;;10.60;52.80;;;;;;4991278;28;20069;-77
2021/04/11 01:09:52;;;;;;;4.78;1.60;;;10.50;51.50;;;;;;4989691;28;20049;-76
2021/04/11 01:12:21;;;;;;;7.25;2.10;;;10.50;52.40;;;;;;4994368;28;20700;-77
2021/04/11 01:14:48;;;;;;;6.78;1.70;;;10.60;54.60;;;;;;4991479;28;20042;-77
2021/04/11 01:17:20;;;;;;;8.20;2.03;;;10.60;53.90;;;;;;4993077;28;20077;-76
2021/04/11 01:19:49;;;;;;;4.28;1.33;;;10.60;54.60;;;;;;4990198;28;20050;-77
2021/04/11 01:22:54;;;;;;;5.10;1.50;;;10.70;53.90;;;;;;4986495;28;20074;-77
2021/04/11 01:25:25;;;;;;;10.60;2.40;;;10.70;53.80;;;;;;4980251;28;20049;-75
2021/04/11 01:27:54;;;;;;;2.95;1.17;;;10.70;55.20;;;;;;4994823;28;20042;-78
2021/04/11 01:30:33;;;;;;;2.88;1.42;;;10.70;54.60;;;;;;4996000;28;20042;-79
2021/04/11 01:33:06;;;;;;;2.47;1.00;;;10.70;54.90;;;;;;4987931;28;20042;-78
2021/04/11 01:35:32;;;;;;;5.15;1.40;;;10.70;55.70;;;;;;4987008;28;20160;-79
2021/04/11 01:37:58;;;;;;;3.65;1.10;;;10.70;55.20;;;;;;4990358;28;20164;-77
2021/04/11 01:40:39;;;;;;;6.95;1.25;;;10.70;55.90;;;;;;4978444;28;20058;-77
2021/04/11 01:43:07;;;;;;;4.38;1.42;;;10.70;55.60;;;;;;4984290;28;20072;-77
2021/04/11 01:45:36;;;;;;;3.45;1.35;;;10.70;55.70;;;;;;4994950;28;20165;-79
2021/04/11 01:48:03;;;;;;;2.08;1.10;;;10.80;56.10;;;;;;4993082;28;20100;-80
2021/04/11 01:50:30;;;;;;;6.22;1.45;;;10.80;56.10;;;;;;4993270;28;20090;-78
2021/04/11 01:52:56;;;;;;;4.95;1.83;;;10.80;56.10;;;;;;4988730;28;20089;-79
2021/04/11 01:55:23;;;;;;;2.38;0.98;;;10.80;56.00;;;;;;4990576;28;20532;-77
2021/04/11 01:57:53;;;;;;;3.35;1.40;;;10.80;55.70;;;;;;4980901;28;20039;-80
2021/04/11 02:00:27;;;;;;;5.15;1.60;;;10.90;55.70;;;;;;4976920;28;20506;-77
2021/04/11 02:02:55;;;;;;;4.57;1.40;;;10.90;55.70;;;;;;4986244;28;20044;-79
2021/04/11 02:05:22;;;;;;;1.52;0.90;;;11.00;55.80;;;;;;4985708;28;20029;-78
2021/04/11 02:07:50;;;;;;;4.50;1.60;;;11.00;54.50;;;;;;4986929;28;20575;-76
2021/04/11 02:10:19;;;;;;;3.85;1.40;;;11.10;53.70;;;;;;4981628;28;20165;-76
2021/04/11 02:12:46;;;;;;;2.97;1.02;;;11.20;54.30;;;;;;4983221;28;20034;-77
2021/04/11 02:15:21;;;;;;;3.45;1.20;;;11.20;53.50;;;;;;5001229;28;20043;-77
2021/04/11 02:17:48;;;;;;;6.82;1.40;;;11.20;53.10;;;;;;4984086;28;20544;-77
2021/04/11 02:20:15;;;;;;;2.75;1.23;;;11.30;53.20;;;;;;4983895;28;20061;-76
2021/04/11 02:22:41;;;;;;;3.45;1.30;;;11.40;52.00;;;;;;4980820;28;20391;-78
2021/04/11 02:25:15;;;;;;;4.75;1.30;;;11.40;52.10;;;;;;4983478;28;20051;-77
2021/04/11 02:27:41;;;;;;;2.80;1.23;;;11.40;51.80;;;;;;4977942;28;20096;-77
2021/04/11 02:30:12;;;;;;;3.40;1.60;;;11.40;52.20;;;;;;4978325;28;20038;-77
2021/04/11 02:32:37;;;;;;;4.63;1.58;;;11.40;52.90;;;;;;4981320;28;20061;-79
2021/04/11 02:35:08;;;;;;;4.40;1.27;;;11.40;53.30;;;;;;4981842;28;20455;-77
2021/04/11 02:37:36;;;;;;;2.85;1.13;;;11.40;54.00;;;;;;4989210;28;20577;-75
2021/04/11 02:40:07;;;;;;;2.65;1.40;;;11.50;54.40;;;;;;4983993;28;20077;-78
2021/04/11 02:42:35;;;;;;;2.45;1.15;;;11.50;54.20;;;;;;4983075;28;20402;-78
2021/04/11 02:45:11;;;;;;;4.25;1.23;;;11.50;55.10;;;;;;4980469;28;20085;-75
2021/04/11 02:47:36;;;;;;;4.75;1.35;;;11.50;56.00;;;;;;4976081;28;20058;-77
2021/04/11 02:50:05;;;;;;;3.13;1.40;;;11.50;56.40;;;;;;4970570;28;20061;-77
2021/04/11 02:52:37;;;;;;;4.93;1.60;;;11.40;62.90;;;;;;4970945;28;20038;-75
2021/04/11 02:55:04;;;;;;;3.10;1.70;;;11.40;68.60;;;;;;4959557;28;20069;-76
2021/04/11 02:57:30;;;;;;;5.00;1.30;;;11.40;71.30;;;;;;4963073;28;20046;-77
2021/04/11 02:59:56;;;;;;;2.83;1.15;;;11.30;70.90;;;;;;4961679;28;20062;-77
2021/04/11 03:02:23;;;;;;;3.42;1.30;;;11.30;71.90;;;;;;4967891;28;20073;-77
2021/04/11 03:04:54;;;;;;;4.32;1.27;;;11.30;72.40;;;;;;4967399;28;20101;-77
2021/04/11 03:07:27;;;;;;;4.25;1.33;;;11.30;71.10;;;;;;4959849;28;20375;-76
2021/04/11 03:10:04;;;;;;;2.03;1.23;;;11.30;74.70;;;;;;4963079;28;20035;-77
2021/04/11 03:12:31;;;;;;;3.55;1.33;;;11.20;77.80;;;;;;4961066;28;20274;-77
2021/04/11 03:14:58;;;;;;;5.93;1.67;;;11.20;77.30;;;;;;4959851;28;20042;-77
2021/04/11 03:17:24;;;;;;;3.05;1.20;;;11.20;77.20;;;;;;4961978;28;20047;-77
2021/04/11 03:19:57;;;;;;;5.10;1.40;;;11.20;77.10;;;;;;4961032;28;20305;-76
2021/04/11 03:22:23;;;;;;;4.20;1.02;;;11.30;76.20;;;;;;4959807;28;20042;-76
2021/04/11 03:24:50;;;;;;;5.20;1.30;;;11.20;78.50;;;;;;4975869;28;20475;-76
2021/04/11 03:27:40;;;;;;;5.95;1.48;;;11.20;77.50;;;;;;4979076;28;20063;-76
2021/04/11 03:30:23;;;;;;;4.35;1.33;;;11.20;77.70;;;;;;4983533;28;20129;-76
2021/04/11 03:32:53;;;;;;;4.13;1.27;;;11.10;77.80;;;;;;4969059;28;20046;-78
2021/04/11 03:35:22;;;;;;;2.22;1.17;;;11.10;79.40;;;;;;4979518;28;20506;-77
2021/04/11 03:37:50;;;;;;;2.28;1.35;;;11.00;82.30;;;;;;4984373;28;20042;-76
2021/04/11 03:40:21;;;;;;;1.83;1.27;;;11.00;81.10;;;;;;4980312;28;20046;-77
2021/04/11 03:42:50;;;;;;;2.47;1.30;;;11.00;82.40;;;;;;4992328;28;20516;-78
2021/04/11 03:45:17;;;;;;;3.38;1.42;;;10.90;82.80;;;;;;4984403;28;20054;-78
2021/04/11 03:47:54;;;;;;;4.05;1.10;;;10.90;82.30;;;;;;4988176;28;20031;-78
2021/04/11 03:50:28;;;;;;;5.60;1.55;;;10.90;83.20;;;;;;4986830;28;20049;-78
2021/04/11 03:52:56;;;;;;;3.03;1.42;;;10.90;84.10;;;;;;4979381;28;20061;-78
2021/04/11 03:55:27;;;;;;;3.22;1.35;;;10.80;86.50;;;;;;4986780;28;20037;-78
2021/04/11 03:57:57;;;;;;;7.28;1.45;;;10.80;86.30;;;;;;4989289;28;20041;-78
2021/04/11 04:00:51;;;;;;;3.00;1.25;;;10.80;86.10;;;;;;4989964;28;20054;-78
2021/04/11 04:03:24;;;;;;;1.80;1.00;;;10.70;86.80;;;;;;4972395;28;20125;-78
2021/04/11 04:05:52;;;;;;;5.85;1.65;;;10.70;87.20;;;;;;4979278;28;20042;-76
2021/04/11 04:08:17;;;;;;;3.67;1.40;;;10.70;86.40;;;;;;4989687;28;20050;-78
2021/04/11 04:11:02;;;;;;;2.00;1.10;;;10.70;86.70;;;;;;4984490;28;20035;-77
2021/04/11 04:13:44;;;;;;;2.47;1.30;;;10.70;86.50;;;;;;4982963;28;20517;-78
2021/04/11 04:16:18;;;;;;;5.90;1.90;;;10.70;86.70;;;;;;4983537;28;20046;-77
2021/04/11 04:19:02;;;;;;;2.47;1.05;;;10.70;86.70;;;;;;4984862;28;20034;-77
2021/04/11 04:21:47;;;;;;;2.47;1.17;;;10.70;86.50;;;;;;4978192;28;20045;-78
2021/04/11 04:24:33;;;;;;;5.45;1.65;;;10.70;85.70;;;;;;4978068;28;20045;-78
2021/04/11 04:27:27;;;;;;;4.65;1.80;;;10.70;86.30;;;;;;4979830;28;20077;-78
2021/04/11 04:30:08;;;;;;;3.53;1.70;;;10.70;85.50;;;;;;4993707;28;20047;-77
2021/04/11 04:32:58;;;;;;;3.58;1.38;;;10.70;85.80;;;;;;4995873;28;20034;-76
2021/04/11 04:35:48;;;;;;;3.88;1.40;;;10.70;86.00;;;;;;4972478;28;20056;-77
2021/04/11 04:38:24;;;;;;;3.47;1.55;;;10.70;85.80;;;;;;4975423;28;20035;-77
2021/04/11 04:41:11;;;;;;;8.75;1.40;;;10.80;85.90;;;;;;4987618;28;20105;-76
2021/04/11 04:43:49;;;;;;;3.72;1.58;;;10.70;85.80;;;;;;4979836;28;20038;-77
2021/04/11 04:46:55;;;;;;;3.50;1.40;;;10.80;86.50;;;;;;4976939;28;20042;-76
2021/04/11 04:49:47;;;;;;;3.97;1.95;;;10.80;85.60;;;;;;4954807;28;20661;-76
2021/04/11 04:52:26;;;;;;;5.93;1.40;;;10.70;86.00;;;;;;4997161;28;20038;-77
2021/04/11 04:54:59;;;;;;;5.53;1.77;;;10.80;84.80;;;;;;4993976;28;20523;-77
2021/04/11 04:57:37;;;;;;;3.30;1.25;;;10.80;84.30;;;;;;4989804;28;20148;-76
2021/04/11 05:00:13;;;;;;;4.15;1.25;;;10.80;84.00;;;;;;4977763;28;20038;-79
2021/04/11 05:02:51;;;;;;;4.82;1.52;;;10.80;84.70;;;;;;4979517;28;20111;-78
2021/04/11 05:05:18;;;;;;;4.72;1.50;;;10.80;84.90;;;;;;4949719;28;20114;-77
2021/04/11 05:07:52;;;;;;;8.27;1.48;;;10.90;84.10;;;;;;4962829;28;20041;-77
2021/04/11 05:10:30;;;;;;;4.65;1.70;;;10.90;84.10;;;;;;4961461;28;20047;-78
2021/04/11 05:13:05;;;;;;;5.82;1.67;;;10.90;85.40;;;;;;4958787;28;20039;-79
2021/04/11 05:15:46;;;;;;;2.28;1.50;;;10.90;85.00;;;;;;4962268;28;20047;-77
2021/04/11 05:18:18;;;;;;;2.67;1.10;;;10.90;85.60;;;;;;4963683;28;20039;-78
2021/04/11 05:20:53;;;;;;;4.43;1.50;;;11.00;85.40;;;;;;4971736;28;20057;-78
2021/04/11 05:23:29;;;;;;;1.55;1.02;;;11.00;85.70;;;;;;4986889;28;20564;-77
2021/04/11 05:26:20;;;;;;;4.45;1.45;;;11.10;84.90;;;;;;4980500;28;20129;-78
2021/04/11 05:29:07;;;;;;;4.68;1.67;;;11.10;84.60;;;;;;4971614;28;20062;-77
2021/04/11 05:31:37;;;;;;;8.55;2.40;;;11.10;84.10;;;;;;4976695;28;20425;-78
2021/04/11 05:34:12;;;;;;;2.72;1.73;;;11.10;84.20;;;;;;4979106;28;20176;-78
2021/04/11 05:36:43;;;;;;;3.58;1.60;;;11.30;82.80;;;;;;4980234;28;20093;-78
2021/04/11 05:39:25;;;;;;;6.30;2.00;;;11.20;83.70;;;;;;4993561;28;20596;-77
2021/04/11 05:42:04;;;;;;;2.25;1.30;;;11.30;81.90;;;;;;4967017;28;20066;-78
2021/04/11 05:44:41;;;;;;;10.75;1.70;;;11.30;83.00;;;;;;4984044;28;20035;-77
2021/04/11 05:47:19;;;;;;;4.75;1.95;;;11.40;81.70;;;;;;4985967;28;20039;-79
2021/04/11 05:49:54;;;;;;;5.53;1.83;;;11.40;82.40;;;;;;4955753;28;20072;-79
2021/04/11 05:52:31;;;;;;;4.60;1.50;;;11.50;81.10;;;;;;4996848;28;20050;-76
2021/04/11 05:54:59;;;;;;;4.85;1.60;;;11.70;83.00;;;;;;4984637;28;20053;-77
2021/04/11 05:57:38;;;;;;;4.68;1.92;;;11.70;82.60;;;;;;4982995;28;20072;-77
2021/04/11 06:00:16;;;;;;;3.90;1.83;;;11.80;82.80;;;;;;4991329;28;20093;-77
2021/04/11 06:02:48;;;;;;;4.10;1.88;;;11.90;83.50;;;;;;4989518;28;20038;-80
2021/04/11 06:05:28;;;;;;;8.88;1.80;;;12.00;82.80;;;;;;4982389;28;20038;-78
2021/04/11 06:08:23;;;;;;;4.43;2.13;;;12.00;82.50;;;;;;4985583;28;20041;-78
2021/04/11 06:11:04;;;;;;;9.32;2.03;;;12.00;80.20;;;;;;4952527;28;20328;-78
2021/04/11 06:13:38;;;;;;;5.85;1.80;;;12.10;80.40;;;;;;4986483;28;20065;-77
2021/04/11 06:16:13;;;;;;;4.95;1.48;;;12.20;80.30;;;;;;4984132;28;20062;-78
2021/04/11 06:18:39;;;;;;;;;;;12.30;79.20;;;;;;4980413;28;20030;-77
2021/04/11 06:21:16;;;;;;;10.52;3.65;;;12.40;78.60;;;;;;4994816;28;20355;-78
2021/04/11 06:23:50;;;;;;;10.15;3.40;;;12.60;79.40;;;;;;4979051;28;20490;-77
2021/04/11 06:26:53;;;;;;;7.70;2.35;;;12.70;74.40;;;;;;4986409;28;20034;-77
2021/04/11 06:29:28;;;;;;;12.23;3.03;;;12.80;72.30;;;;;;4967590;28;20097;-78
2021/04/11 06:31:58;;;;;;;6.75;2.55;;;13.00;72.00;;;;;;4986700;28;20858;-78
2021/04/11 06:34:30;;;;;;;20.25;3.83;;;13.10;70.90;;;;;;4986380;28;20458;-77
2021/04/11 06:37:01;;;;;;;7.00;2.60;;;13.30;69.60;;;;;;4995425;28;20085;-77
2021/04/11 06:39:31;;;;;;;6.75;2.80;;;13.30;70.40;;;;;;4985483;28;20066;-78
2021/04/11 06:42:28;;;;;;;11.60;3.10;;;13.40;67.00;;;;;;5011126;28;20026;-78
2021/04/11 06:45:12;;;;;;;6.60;2.53;;;13.60;66.40;;;;;;4974889;28;20057;-78
2021/04/11 06:48:16;;;;;;;11.48;2.63;;;13.70;62.80;;;;;;4982994;28;20041;-78
2021/04/11 06:51:22;;;;;;;5.57;2.53;;;13.80;62.10;;;;;;4967490;28;20034;-81
2021/04/11 06:54:25;;;;;;;5.57;2.38;;;14.00;61.30;;;;;;4979315;28;20034;-80
2021/04/11 06:57:16;;;;;;;3.95;1.88;;;14.00;58.70;;;;;;4980744;28;20038;-80
2021/04/11 06:59:58;;;;;;;6.78;2.25;;;14.30;56.70;;;;;;4981271;28;20043;-80
2021/04/11 07:02:55;;;;;;;4.00;2.03;;;14.50;54.90;;;;;;4980541;28;20071;-82
2021/04/11 07:05:36;;;;;;;5.78;2.85;;;14.80;53.30;;;;;;4969369;28;20086;-80
2021/04/11 07:08:25;;;;;;;8.63;3.65;;;15.30;51.00;;;;;;4993529;28;20546;-80
2021/04/11 07:11:42;;;;;;;4.22;2.28;;;15.40;49.50;;;;;;4974760;28;20445;-80
2021/04/11 07:14:47;;;;;;;4.63;1.90;;;16.00;47.50;;;;;;4986653;28;20072;-81
2021/04/11 07:17:50;;;;;;;5.13;2.23;;;16.20;45.50;;;;;;4984729;28;20133;-79
2021/04/11 07:20:37;;;;;;;6.47;2.20;;;16.00;43.50;;;;;;4987833;28;20042;-79
2021/04/11 07:23:40;;;;;;;11.88;2.22;;;15.90;43.80;;;;;;4997818;28;20038;-78
2021/04/11 07:26:22;;;;;;;4.32;1.90;;;16.10;43.50;;;;;;4976815;28;20034;-78
2021/04/11 07:29:05;;;;;;;3.88;1.70;;;16.20;41.60;;;;;;4985467;28;20039;-78
2021/04/11 07:31:52;;;;;;;8.48;1.90;;;15.90;41.60;;;;;;4992537;28;20066;-79
2021/04/11 07:34:55;;;;;;;8.85;2.10;;;16.10;41.90;;;;;;4964721;28;20064;-80
2021/04/11 07:37:49;;;;;;;3.05;1.80;;;16.50;41.90;;;;;;4986013;28;20038;-80
2021/04/11 07:40:35;;;;;;;2.58;1.33;;;16.70;39.60;;;;;;4994010;28;20065;-79
2021/04/11 07:43:37;;;;;;;4.40;1.73;;;17.00;37.90;;;;;;4998492;28;20094;-80
2021/04/11 07:46:27;;;;;;;8.38;1.48;;;17.30;38.10;;;;;;4981159;28;20078;-81
2021/04/11 07:49:16;;;;;;;3.60;1.48;;;17.30;35.60;;;;;;4979980;28;20030;-80
2021/04/11 07:52:07;;;;;;;9.07;1.70;;;17.80;34.90;;;;;;4988000;28;20058;-78
2021/04/11 07:55:02;;;;;;;3.53;1.17;;;18.30;33.90;;;;;;4991792;28;20076;-80
2021/04/11 07:57:33;;;;;;;2.63;1.00;;;18.70;31.60;;;;;;4983654;28;20030;-80
2021/04/11 08:00:24;;;;;;;2.67;1.30;;;18.60;31.60;;;;;;4991811;28;20058;-78
2021/04/11 08:02:52;;;;;;;3.40;1.55;;;18.60;32.30;;;;;;4982613;28;20215;-79
2021/04/11 08:05:56;;;;;;;2.55;1.20;;;18.40;31.50;;;;;;4984945;28;20030;-77
2021/04/11 08:08:40;;;;;;;1.65;0.77;;;18.90;31.70;;;;;;4977693;28;20502;-77
2021/04/11 08:11:31;;;;;;;2.40;0.88;;;19.00;30.20;;;;;;4980221;28;20187;-74
2021/04/11 08:14:17;;;;;;;3.00;0.88;;;19.30;31.00;;;;;;4962106;28;20049;-76
2021/04/11 08:17:15;;;;;;;1.05;0.40;;;19.20;29.00;;;;;;4974216;28;20042;-75
2021/04/11 08:19:54;;;;;;;1.92;0.75;;;18.70;29.20;;;;;;4977482;28;20460;-74
2021/04/11 08:22:59;;;;;;;2.45;0.80;;;18.90;30.00;;;;;;4960393;28;20438;-76
2021/04/11 08:25:57;;;;;;;4.65;0.75;;;19.30;29.70;;;;;;4939147;28;20051;-77
2021/04/11 08:29:17;;;;;;;3.20;0.70;;;19.20;29.40;;;;;;4965651;28;20062;-77
2021/04/11 08:31:59;;;;;;;3.22;0.98;;;20.10;28.60;;;;;;4923630;28;20042;-76
2021/04/11 08:34:43;;;;;;;1.52;0.70;;;19.40;27.30;;;;;;4984021;28;20352;-76
2021/04/11 08:37:26;;;;;;;1.70;0.80;;;19.30;28.30;;;;;;4948912;28;20037;-76
2021/04/11 08:40:06;;;;;;;4.32;0.70;;;19.10;28.50;;;;;;4967904;28;20034;-76
2021/04/11 08:43:04;;;;;;;1.98;0.73;;;19.40;28.70;;;;;;4958054;28;20042;-76
2021/04/11 08:45:50;;;;;;;10.98;0.52;;;19.30;28.00;;;;;;4969113;28;20047;-80
2021/04/11 08:49:01;;;;;;;3.28;0.70;;;19.20;28.20;;;;;;4971675;28;20045;-78
2021/04/11 08:51:35;;;;;;;1.27;0.70;;;19.70;28.10;;;;;;4974586;28;20354;-79
2021/04/11 08:54:20;;;;;;;3.33;1.08;;;20.20;26.70;;;;;;4988210;28;20043;-79
2021/04/11 08:56:49;;;;;;;3.00;0.98;;;20.30;26.70;;;;;;4984920;28;20046;-80
2021/04/11 08:59:31;;;;;;;9.07;1.15;;;20.20;27.50;;;;;;4970688;28;20045;-80
2021/04/11 09:02:38;;;;;;;2.75;0.90;;;20.00;26.60;;;;;;4986194;28;20074;-79
2021/04/11 09:05:22;;;;;;;2.60;0.93;;;19.50;27.10;;;;;;4954306;28;20039;-76
2021/04/11 09:07:50;;;;;;;3.85;1.17;;;19.50;28.20;;;;;;4971866;28;20306;-80
2021/04/11 09:10:47;;;;;;;3.33;1.05;;;19.10;28.50;;;;;;4980645;28;20043;-80
2021/04/11 09:13:36;;;;;;;7.50;1.08;;;18.70;29.00;;;;;;4987531;28;20152;-80
2021/04/11 09:16:15;;;;;;;2.60;1.00;;;18.70;29.20;;;;;;4990563;28;20096;-80
2021/04/11 09:18:56;;;;;;;2.78;0.93;;;18.90;29.20;;;;;;4971424;28;20130;-78
2021/04/11 09:21:43;;;;;;;3.78;0.80;;;18.90;29.10;;;;;;4991706;28;20496;-78
2021/04/11 09:24:18;;;;;;;2.05;0.77;;;18.70;29.10;;;;;;4983635;28;20038;-78
2021/04/11 09:27:20;;;;;;;2.25;1.10;;;18.90;29.20;;;;;;5009804;28;20038;-79
2021/04/11 09:30:25;;;;;;;3.53;1.17;;;18.90;28.80;;;;;;4985459;28;20050;-79
2021/04/11 09:33:10;;;;;;;5.32;1.40;;;18.80;29.20;;;;;;4964704;28;20035;-80
2021/04/11 09:35:54;;;;;;;4.35;1.13;;;18.70;29.40;;;;;;4979226;28;20100;-80
2021/04/11 09:38:54;;;;;;;2.25;0.80;;;18.90;29.40;;;;;;4989218;28;20284;-79
2021/04/11 09:41:39;;;;;;;3.15;0.88;;;18.90;28.40;;;;;;4979452;28;20038;-80
2021/04/11 09:44:23;;;;;;;5.15;1.33;;;19.40;28.10;;;;;;4985425;28;20084;-82
2021/04/11 09:46:58;;;;;;;7.75;1.05;;;20.70;27.30;;;;;;4995106;28;20038;-81
2021/04/11 09:49:44;;;;;;;9.07;1.20;;;21.60;24.90;;;;;;4973628;28;20140;-80
2021/04/11 09:52:18;;;;;;;3.30;1.08;;;21.10;24.00;;;;;;4985033;28;20034;-81
2021/04/11 09:54:46;;;;;;;;;;;20.70;25.10;;;;;;4983053;28;20458;-80
2021/04/11 09:57:57;;;;;;;3.13;1.15;;;21.20;24.70;;;;;;4994647;28;19918;-79
2021/04/11 10:00:34;;;;;;;5.15;1.35;;;21.90;24.30;;;;;;4976844;28;20121;-78
2021/04/11 10:03:19;;;;;;;4.70;1.10;;;22.20;22.70;;;;;;4952014;28;20114;-77
2021/04/11 10:06:25;;;;;;;2.53;0.90;;;22.40;22.40;;;;;;4969278;28;20038;-78
2021/04/11 10:09:01;;;;;;;2.78;1.20;;;21.90;23.40;;;;;;4976209;28;20035;-78
2021/04/11 10:11:54;;;;;;;4.72;1.17;;;22.30;22.80;;;;;;4984807;28;20046;-78
2021/04/11 10:14:39;;;;;;;1.98;1.00;;;23.40;21.10;;;;;;4984325;28;20038;-78
2021/04/11 10:17:32;;;;;;;2.85;1.00;;;23.70;19.80;;;;;;4973659;28;20057;-75
2021/04/11 10:20:04;;;;;;;3.80;1.05;;;24.30;19.10;;;;;;4968207;28;20048;-77
2021/04/11 10:23:07;;;;;;;2.85;1.17;;;23.90;19.30;;;;;;4975259;28;20530;-76
2021/04/11 10:25:49;;;;;;;7.15;1.25;;;24.10;19.90;;;;;;4971351;28;20489;-76
2021/04/11 10:28:37;;;;;;;3.70;0.93;;;23.60;19.90;;;;;;4981167;28;20493;-78
2021/04/11 10:31:27;;;;;;;4.72;1.25;;;22.60;20.20;;;;;;4986499;28;20042;-82
2021/04/11 10:34:08;;;;;;;6.72;1.55;;;21.90;21.70;;;;;;4997915;28;20054;-82
2021/04/11 10:36:40;;;;;;;6.20;1.23;;;21.90;21.70;;;;;;4991169;28;20042;-86
2021/04/11 10:39:20;;;;;;;2.60;0.90;;;21.20;22.20;;;;;;5005892;28;20035;-84
2021/04/11 10:42:08;;;;;;;2.83;0.90;;;20.40;23.60;;;;;;4997152;28;20062;-78
2021/04/11 10:44:52;;;;;;;2.95;1.10;;;20.10;24.10;;;;;;4986805;28;20390;-78
2021/04/11 10:47:24;;;;;;;;;;;20.00;24.30;;;;;;4984251;28;20038;-80
2021/04/11 10:50:10;;;;;;;2.50;0.85;;;19.60;24.60;;;;;;4984976;28;19922;-80
2021/04/11 10:52:50;;;;;;;2.47;0.82;;;19.80;25.30;;;;;;5007092;28;20076;-79
2021/04/11 10:55:39;;;;;;;4.40;1.05;;;19.50;24.90;;;;;;5000756;28;20094;-80
2021/04/11 10:58:35;;;;;;;3.42;1.10;;;19.30;24.30;;;;;;5006430;28;20046;-79
2021/04/11 11:01:24;;;;;;;4.90;1.00;;;19.00;24.70;;;;;;4999337;28;20057;-79
2021/04/11 11:04:09;;;;;;;7.40;1.15;;;19.10;25.30;;;;;;5000177;28;20065;-81
2021/04/11 11:07:17;;;;;;;5.85;0.98;;;18.80;25.90;;;;;;4993054;28;20062;-79
2021/04/11 11:09:58;;;;;;;6.22;1.00;;;18.80;25.80;;;;;;4984586;28;20062;-79
2021/04/11 11:12:43;;;;;;;5.00;0.90;;;18.90;26.10;;;;;;5003488;28;20713;-80
2021/04/11 11:15:34;;;;;;;7.13;1.20;;;19.00;26.00;;;;;;4996178;28;20043;-79
2021/04/11 11:18:28;;;;;;;4.03;1.10;;;18.90;25.60;;;;;;4991053;28;20057;-80
2021/04/11 11:21:27;;;;;;;7.38;1.00;;;19.10;26.20;;;;;;4991525;28;20043;-81
2021/04/11 11:24:20;;;;;;;6.60;1.20;;;18.90;25.80;;;;;;4989314;28;20113;-81
2021/04/11 11:26:54;;;;;;;3.35;0.98;;;18.80;26.10;;;;;;5003574;28;20038;-80
2021/04/11 11:29:29;;;;;;;;;;;18.90;26.80;;;;;;4995391;28;20038;-81
2021/04/11 11:32:40;;;;;;;8.80;1.75;;;19.10;26.10;;;;;;4992109;28;19921;-80
2021/04/11 11:35:09;;;;;;;3.28;1.35;;;19.20;25.60;;;;;;4986448;28;20026;-80
2021/04/11 11:37:34;;;;;;;6.60;1.45;;;19.60;25.50;;;;;;4995670;28;20695;-80
2021/04/11 11:40:19;;;;;;;4.22;1.30;;;19.70;25.20;;;;;;4991982;28;20046;-80
2021/04/11 11:43:25;;;;;;;2.08;1.10;;;19.80;25.00;;;;;;4992927;28;20027;-80
2021/04/11 11:46:32;;;;;;;3.55;1.08;;;21.90;24.10;;;;;;4987385;28;20034;-81
2021/04/11 11:49:27;;;;;;;4.78;1.35;;;23.10;21.90;;;;;;4988996;28;20500;-80
2021/04/11 11:52:20;;;;;;;5.07;1.48;;;23.20;21.40;;;;;;4980837;28;20034;-80
2021/04/11 11:55:16;;;;;;;3.83;1.40;;;23.90;20.20;;;;;;4993042;28;20046;-80
2021/04/11 11:57:52;;;;;;;4.75;1.10;;;24.60;20.20;;;;;;4991310;28;20148;-79
2021/04/11 12:00:34;;;;;;;4.82;1.30;;;24.10;19.10;;;;;;4993902;28;20132;-79
2021/04/11 12:03:18;;;;;;;3.33;1.27;;;24.80;18.90;;;;;;4987087;28;20038;-79
2021/04/11 12:05:59;;;;;;;2.83;1.00;;;23.20;19.50;;;;;;4999287;28;20128;-79
2021/04/11 12:08:43;;;;;;;2.50;1.23;;;22.50;20.30;;;;;;4985205;28;20062;-78
2021/04/11 12:11:19;;;;;;;6.03;1.30;;;23.10;21.10;;;;;;4990492;28;20559;-78
2021/04/11 12:14:05;;;;;;;7.47;1.58;;;22.80;21.10;;;;;;4985966;28;20035;-78
2021/04/11 12:16:35;;;;;;;3.22;1.17;;;22.80;21.10;;;;;;4989700;28;20042;-78
2021/04/11 12:19:23;;;;;;;6.95;1.33;;;23.00;20.60;;;;;;4992121;28;20039;-78
2021/04/11 12:21:59;;;;;;;4.53;1.08;;;22.70;20.90;;;;;;4983257;28;20058;-78
2021/04/11 12:24:30;;;;;;;5.30;1.60;;;22.60;20.90;;;;;;4992567;28;20181;-79
2021/04/11 12:27:02;;;;;;;3.60;1.52;;;22.90;20.40;;;;;;5012211;28;22243;-79
2021/04/11 12:29:30;;;;;;;4.45;1.25;;;22.00;20.80;;;;;;4989448;28;20042;-79
2021/04/11 12:31:59;;;;;;;3.05;1.38;;;22.30;20.90;;;;;;4984985;28;21024;-79
2021/04/11 12:34:48;;;;;;;1.35;0.73;;;21.90;20.50;;;;;;4994473;28;20122;-79
2021/04/11 12:37:39;;;;;;;2.97;1.05;;;22.00;20.80;;;;;;4986159;28;20039;-78
2021/04/11 12:40:13;;;;;;;7.50;1.40;;;21.00;24.80;;;;;;4988869;28;20093;-79
2021/04/11 12:42:45;;;;;;;7.45;1.77;;;21.00;26.20;;;;;;4990879;28;20046;-79
2021/04/11 12:45:28;;;;;;;4.70;1.35;;;21.10;26.20;;;;;;4983481;28;20030;-79
2021/04/11 12:48:07;;;;;;;5.72;1.50;;;20.80;27.30;;;;;;4982675;28;20042;-79
2021/04/11 12:50:54;;;;;;;6.97;1.90;;;20.70;27.50;;;;;;5006533;28;20049;-85
2021/04/11 12:53:37;;;;;;;5.28;1.35;;;20.30;27.80;;;;;;4981777;28;20046;-87
2021/04/11 12:56:06;;;;;;;3.15;1.20;;;20.30;28.60;;;;;;4984426;28;20042;-79
2021/04/11 12:58:35;;;;;;;2.03;1.02;;;20.00;29.20;;;;;;4996712;28;20050;-81
2021/04/11 13:01:21;;;;;;;4.53;1.33;;;19.80;29.50;;;;;;4994474;28;20046;-80
2021/04/11 13:03:52;;;;;;;10.02;1.58;;;19.80;29.80;;;;;;4993119;28;20729;-80
2021/04/11 13:06:31;;;;;;;1.63;1.13;;;19.70;30.20;;;;;;4995584;28;20034;-81
2021/04/11 13:09:21;;;;;;;4.18;1.40;;;19.80;29.90;;;;;;4995732;28;20038;-80
2021/04/11 13:11:56;;;;;;;3.80;1.00;;;19.90;29.80;;;;;;4985947;28;20034;-80
2021/04/11 13:14:34;;;;;;;5.63;1.23;;;19.90;29.70;;;;;;4991816;28;20030;-81
2021/04/11 13:17:09;;;;;;;6.63;1.30;;;19.90;29.70;;;;;;4993221;28;20061;-83
2021/04/11 13:19:41;;;;;;;3.35;1.02;;;20.00;29.70;;;;;;4986656;28;20038;-81
2021/04/11 13:22:25;;;;;;;3.15;1.27;;;19.90;29.80;;;;;;4989520;28;20055;-80
2021/04/11 13:25:18;;;;;;;1.80;1.13;;;19.80;29.90;;;;;;4985372;28;20031;-81
2021/04/11 13:27:53;;;;;;;2.65;0.80;;;19.70;30.00;;;;;;4989929;28;20444;-80
2021/04/11 13:30:31;;;;;;;2.03;1.05;;;19.50;30.00;;;;;;4988626;28;20065;-80
2021/04/11 13:33:12;;;;;;;1.73;0.80;;;19.40;30.00;;;;;;4982039;28;20046;-81
2021/04/11 13:35:54;;;;;;;2.90;1.40;;;19.50;30.70;;;;;;5004889;28;20137;-80
2021/04/11 13:38:38;;;;;;;2.72;1.10;;;19.60;30.50;;;;;;4988638;28;20165;-81
2021/04/11 13:41:25;;;;;;;2.43;1.20;;;19.80;30.30;;;;;;4986917;28;20030;-82
2021/04/11 13:44:13;;;;;;;2.30;1.00;;;19.80;30.60;;;;;;4995089;28;20858;-80
2021/04/11 13:46:54;;;;;;;2.17;0.90;;;19.70;31.20;;;;;;4982554;28;20046;-78
2021/04/11 13:49:38;;;;;;;5.10;0.98;;;19.50;31.50;;;;;;4990976;28;20250;-83
2021/04/11 13:52:16;;;;;;;2.13;0.70;;;19.00;31.60;;;;;;4964751;28;20035;-82